createdAt,value
2019-03-18T00:00:28.565Z,2.80
2019-03-18T00:02:56.440Z,3.40
2019-03-18T00:05:24.583Z,3.80
2019-03-18T00:07:53.094Z,3.72
2019-03-18T00:10:21.370Z,3.60
2019-03-18T00:12:52.173Z,3.58
2019-03-18T00:15:18.301Z,3.80
2019-03-18T00:17:46.470Z,4.20
2019-03-18T00:20:14.679Z,3.55
2019-03-18T00:22:42.733Z,4.85
2019-03-18T00:25:11.372Z,4.15
2019-03-18T00:27:38.848Z,4.50
2019-03-18T00:30:07.346Z,3.55
2019-03-18T00:32:35.417Z,4.43
2019-03-18T00:35:03.272Z,4.03
2019-03-18T00:37:31.347Z,3.78
2019-03-18T00:40:00.348Z,4.37
2019-03-18T00:42:28.175Z,4.10
2019-03-18T00:44:56.309Z,4.20
2019-03-18T00:47:24.163Z,4.28
2019-03-18T00:49:52.255Z,5.03
2019-03-18T00:52:20.422Z,4.47
2019-03-18T00:54:49.049Z,4.37
2019-03-18T00:57:17.184Z,4.53
2019-03-18T00:59:45.331Z,5.20
2019-03-18T01:02:13.406Z,5.00
2019-03-18T01:04:41.561Z,5.95
2019-03-18T01:07:10.223Z,5.25
2019-03-18T01:09:38.130Z,5.35
2019-03-18T01:12:06.013Z,5.45
2019-03-18T01:14:33.761Z,5.07
2019-03-18T01:17:01.838Z,4.72
2019-03-18T01:19:29.442Z,4.05
2019-03-18T01:21:57.560Z,4.87
2019-03-18T01:24:25.631Z,5.57
2019-03-18T01:26:53.702Z,5.45
2019-03-18T01:29:21.449Z,5.97
2019-03-18T01:31:49.596Z,5.22
2019-03-18T01:34:17.183Z,6.05
2019-03-18T01:36:47.557Z,6.10
2019-03-18T01:39:16.485Z,5.97
2019-03-18T01:41:47.012Z,6.37
2019-03-18T01:44:15.875Z,7.05
2019-03-18T01:46:45.118Z,6.70
2019-03-18T01:49:14.336Z,6.95
2019-03-18T01:51:43.436Z,7.45
2019-03-18T01:54:11.589Z,6.70
2019-03-18T01:56:39.982Z,7.00
2019-03-18T01:59:08.054Z,6.93
2019-03-18T02:01:36.205Z,12.05
2019-03-18T02:04:04.411Z,9.10
2019-03-18T02:06:32.559Z,9.13
2019-03-18T02:09:00.675Z,9.88
2019-03-18T02:11:43.870Z,8.02
2019-03-18T02:14:12.052Z,8.02
2019-03-18T02:16:40.101Z,8.18
2019-03-18T02:19:08.023Z,8.35
2019-03-18T02:21:36.118Z,8.15
2019-03-18T02:24:04.283Z,6.82
2019-03-18T02:26:32.197Z,6.25
2019-03-18T02:28:59.968Z,6.28
2019-03-18T02:31:28.029Z,6.50
2019-03-18T02:33:55.919Z,6.95
2019-03-18T02:36:24.179Z,7.18
2019-03-18T02:38:52.226Z,7.37
2019-03-18T02:41:20.328Z,6.82
2019-03-18T02:43:49.720Z,7.28
2019-03-18T02:46:17.791Z,8.15
2019-03-18T02:48:46.736Z,6.95
2019-03-18T02:51:14.845Z,7.03
2019-03-18T02:53:42.909Z,6.75
2019-03-18T02:56:11.422Z,7.28
2019-03-18T02:58:39.283Z,7.80
2019-03-18T03:01:07.314Z,7.32
2019-03-18T03:03:36.956Z,7.28
2019-03-18T03:06:03.278Z,7.03
2019-03-18T03:08:31.306Z,7.68
2019-03-18T03:10:59.223Z,6.30
2019-03-18T03:13:27.267Z,6.72
2019-03-18T03:15:55.045Z,7.37
2019-03-18T03:18:23.249Z,7.75
2019-03-18T03:20:51.381Z,7.40
2019-03-18T03:23:19.584Z,7.22
2019-03-18T03:25:47.918Z,6.53
2019-03-18T03:28:16.137Z,7.60
2019-03-18T03:30:44.160Z,6.37
2019-03-18T03:33:12.259Z,5.50
2019-03-18T03:35:40.336Z,4.20
2019-03-18T03:38:08.106Z,3.75
2019-03-18T03:40:36.077Z,3.85
2019-03-18T03:43:04.119Z,3.50
2019-03-18T03:45:33.048Z,4.10
2019-03-18T03:48:01.114Z,3.40
2019-03-18T03:50:29.158Z,3.17
2019-03-18T03:52:57.253Z,3.37
2019-03-18T03:55:25.108Z,3.15
2019-03-18T03:57:53.285Z,2.90
2019-03-18T04:00:21.534Z,3.10
2019-03-18T04:02:50.656Z,2.78
2019-03-18T04:05:18.779Z,2.55
2019-03-18T04:07:46.492Z,2.00
2019-03-18T04:10:14.571Z,2.20
2019-03-18T04:12:42.304Z,2.50
2019-03-18T04:15:10.675Z,2.30
2019-03-18T04:17:40.509Z,2.47
2019-03-18T04:20:09.255Z,3.03
2019-03-18T04:22:37.167Z,2.45
2019-03-18T04:25:05.318Z,2.42
2019-03-18T04:27:33.192Z,2.12
2019-03-18T04:30:01.262Z,1.80
2019-03-18T04:32:29.970Z,2.40
2019-03-18T04:34:59.273Z,2.28
2019-03-18T04:37:28.629Z,2.92
2019-03-18T04:39:57.150Z,2.42
2019-03-18T04:42:25.247Z,2.45
2019-03-18T04:44:53.593Z,1.52
2019-03-18T04:47:22.299Z,2.00
2019-03-18T04:49:50.362Z,2.15
2019-03-18T04:52:18.487Z,2.10
2019-03-18T04:54:46.678Z,2.17
2019-03-18T04:57:14.149Z,2.50
2019-03-18T04:59:42.243Z,1.90
2019-03-18T05:02:10.171Z,1.87
2019-03-18T05:04:38.228Z,2.10
2019-03-18T05:07:06.035Z,2.20
2019-03-18T05:09:34.195Z,2.55
2019-03-18T05:12:02.283Z,3.10
2019-03-18T05:14:30.016Z,1.67
2019-03-18T05:16:57.984Z,2.17
2019-03-18T05:19:25.772Z,2.22
2019-03-18T05:21:53.949Z,2.20
2019-03-18T05:24:22.104Z,2.00
2019-03-18T05:26:50.148Z,2.00
2019-03-18T05:29:17.991Z,2.03
2019-03-18T05:31:46.140Z,1.73
2019-03-18T05:34:13.885Z,1.42
2019-03-18T05:36:42.143Z,1.48
2019-03-18T05:39:10.415Z,1.67
2019-03-18T05:41:38.234Z,2.35
2019-03-18T05:44:07.956Z,1.40
2019-03-18T05:46:34.061Z,1.52
2019-03-18T05:49:02.493Z,1.65
2019-03-18T05:51:30.579Z,1.60
2019-03-18T05:53:58.373Z,1.65
2019-03-18T05:56:26.392Z,1.33
2019-03-18T05:58:54.287Z,1.65
2019-03-18T06:01:22.492Z,1.73
2019-03-18T06:03:50.009Z,1.85
2019-03-18T06:06:17.763Z,1.60
2019-03-18T06:08:45.854Z,1.87
2019-03-18T06:11:13.935Z,2.00
2019-03-18T06:13:42.088Z,2.78
2019-03-18T06:16:09.562Z,2.20
2019-03-18T06:18:37.362Z,2.30
2019-03-18T06:21:05.520Z,1.85
2019-03-18T06:23:33.757Z,2.05
2019-03-18T06:26:01.891Z,3.40
2019-03-18T06:28:30.007Z,2.12
2019-03-18T06:30:58.066Z,1.95
2019-03-18T06:33:26.171Z,2.37
2019-03-18T06:35:54.210Z,1.62
2019-03-18T06:38:22.419Z,1.60
2019-03-18T06:40:50.250Z,2.22
2019-03-18T06:43:18.228Z,1.70
2019-03-18T06:45:46.408Z,2.33
2019-03-18T06:48:14.563Z,2.10
2019-03-18T06:50:42.744Z,2.40
2019-03-18T06:53:11.380Z,2.22
2019-03-18T06:55:39.531Z,2.12
2019-03-18T06:58:07.700Z,2.15
2019-03-18T07:00:35.858Z,2.12
2019-03-18T07:03:03.923Z,2.70
2019-03-18T07:05:31.992Z,2.20
2019-03-18T07:07:59.854Z,3.00
2019-03-18T07:10:28.208Z,3.62
2019-03-18T07:12:56.309Z,4.18
2019-03-18T07:15:24.567Z,3.15
2019-03-18T07:17:52.749Z,3.03
2019-03-18T07:20:20.874Z,2.87
2019-03-18T07:22:48.816Z,3.28
2019-03-18T07:25:16.962Z,3.40
2019-03-18T07:27:45.040Z,3.00
2019-03-18T07:30:13.183Z,3.28
2019-03-18T07:32:41.327Z,2.25
2019-03-18T07:35:09.741Z,2.83
2019-03-18T07:37:37.855Z,2.30
2019-03-18T07:40:06.333Z,2.50
2019-03-18T07:42:34.501Z,2.58
2019-03-18T07:45:02.406Z,2.67
2019-03-18T07:47:30.545Z,2.72
2019-03-18T07:49:58.603Z,2.30
2019-03-18T07:52:27.414Z,2.22
2019-03-18T07:54:55.426Z,2.42
2019-03-18T07:57:23.554Z,2.80
2019-03-18T07:59:52.025Z,2.60
2019-03-18T08:02:19.793Z,3.00
2019-03-18T08:04:47.250Z,2.20
2019-03-18T08:07:15.448Z,2.05
2019-03-18T08:09:43.505Z,2.03
2019-03-18T08:12:11.345Z,1.80
2019-03-18T08:14:40.243Z,1.55
2019-03-18T08:17:07.702Z,2.45
2019-03-18T08:19:35.754Z,2.10
2019-03-18T08:22:04.267Z,2.37
2019-03-18T08:24:32.510Z,2.37
2019-03-18T08:27:00.594Z,2.22
2019-03-18T08:29:29.347Z,2.20
2019-03-18T08:31:57.453Z,2.95
2019-03-18T08:34:25.625Z,2.80
2019-03-18T08:36:53.684Z,2.47
2019-03-18T08:39:21.761Z,2.83
2019-03-18T08:41:49.947Z,2.45
2019-03-18T08:44:18.115Z,2.70
2019-03-18T08:46:46.181Z,3.28
2019-03-18T08:49:14.264Z,2.92
2019-03-18T08:51:42.344Z,3.33
2019-03-18T08:54:11.036Z,2.37
2019-03-18T08:56:38.871Z,3.50
2019-03-18T08:59:07.073Z,2.83
2019-03-18T09:01:35.447Z,2.80
2019-03-18T09:04:03.314Z,3.90
2019-03-18T09:06:31.477Z,2.87
2019-03-18T09:08:59.243Z,3.15
2019-03-18T09:11:27.117Z,2.22
2019-03-18T09:13:55.494Z,2.97
2019-03-18T09:16:23.520Z,2.70
2019-03-18T09:18:51.630Z,2.15
2019-03-18T09:21:19.706Z,2.22
2019-03-18T09:23:47.778Z,2.28
2019-03-18T09:26:15.805Z,2.53
2019-03-18T09:28:44.009Z,2.55
2019-03-18T09:31:12.090Z,3.33
2019-03-18T09:33:39.942Z,2.20
2019-03-18T09:36:08.127Z,2.35
2019-03-18T09:38:36.674Z,2.35
2019-03-18T09:41:04.769Z,2.05
2019-03-18T09:43:33.135Z,2.72
2019-03-18T09:46:00.918Z,2.45
2019-03-18T09:48:28.984Z,3.30
2019-03-18T09:50:57.201Z,2.80
2019-03-18T09:53:25.354Z,2.28
2019-03-18T09:55:55.251Z,2.92
2019-03-18T09:58:23.369Z,2.80
2019-03-18T10:00:51.236Z,3.50
2019-03-18T10:03:19.865Z,3.05
2019-03-18T10:05:48.323Z,2.80
2019-03-18T10:08:16.534Z,3.10
2019-03-18T10:10:44.277Z,2.75
2019-03-18T10:13:12.250Z,2.33
2019-03-18T10:15:40.480Z,2.80
2019-03-18T10:18:09.194Z,1.83
2019-03-18T10:20:36.383Z,1.80
2019-03-18T10:23:04.462Z,1.87
2019-03-18T10:25:32.321Z,2.15
2019-03-18T10:28:00.273Z,1.92
2019-03-18T10:30:28.349Z,1.70
2019-03-18T10:32:56.419Z,2.00
2019-03-18T10:35:24.913Z,2.40
2019-03-18T10:37:52.977Z,2.37
2019-03-18T10:40:21.082Z,2.53
2019-03-18T10:42:49.651Z,1.80
2019-03-18T10:45:17.899Z,2.72
2019-03-18T10:47:45.669Z,2.37
2019-03-18T10:50:13.623Z,2.60
2019-03-18T10:52:41.134Z,2.45
2019-03-18T10:55:09.944Z,2.30
2019-03-18T10:57:38.685Z,2.25
2019-03-18T11:00:06.972Z,1.98
2019-03-18T11:02:34.818Z,3.35
2019-03-18T11:05:02.664Z,2.03
2019-03-18T11:07:30.740Z,2.33
2019-03-18T11:09:58.826Z,2.37
2019-03-18T11:12:27.098Z,2.00
2019-03-18T11:14:55.159Z,3.42
2019-03-18T11:17:23.231Z,3.12
2019-03-18T11:19:58.290Z,3.00
2019-03-18T11:22:19.597Z,2.92
2019-03-18T11:24:47.648Z,2.37
2019-03-18T11:27:15.723Z,2.75
2019-03-18T11:29:43.787Z,2.30
2019-03-18T11:32:11.865Z,2.45
2019-03-18T11:34:40.435Z,2.20
2019-03-18T11:37:08.546Z,1.92
2019-03-18T11:39:36.672Z,2.10
2019-03-18T11:42:05.163Z,2.30
2019-03-18T11:44:33.371Z,2.50
2019-03-18T11:47:01.263Z,2.72
2019-03-18T11:49:39.201Z,3.15
2019-03-18T11:51:57.347Z,2.70
2019-03-18T11:54:25.317Z,2.40
2019-03-18T11:56:53.150Z,2.53
2019-03-18T11:59:21.784Z,2.40
2019-03-18T12:01:49.841Z,2.72
2019-03-18T12:04:17.924Z,2.40
2019-03-18T12:06:45.687Z,2.30
2019-03-18T12:09:13.438Z,1.85
2019-03-18T12:11:41.630Z,2.72
2019-03-18T12:14:10.413Z,2.15
2019-03-18T12:16:38.495Z,2.72
2019-03-18T12:19:06.458Z,2.33
2019-03-18T12:21:34.510Z,1.90
2019-03-18T12:24:02.691Z,2.72
2019-03-18T12:26:30.855Z,2.05
2019-03-18T12:28:58.957Z,1.98
2019-03-18T12:31:26.701Z,2.12
2019-03-18T12:33:57.263Z,2.58
2019-03-18T12:36:22.278Z,2.47
2019-03-18T12:38:50.403Z,2.10
2019-03-18T12:41:18.337Z,2.40
2019-03-18T12:43:46.138Z,2.08
2019-03-18T12:46:14.216Z,1.70
2019-03-18T12:48:42.315Z,2.22
2019-03-18T12:51:10.677Z,2.17
2019-03-18T12:53:38.698Z,2.03
2019-03-18T12:56:06.199Z,2.40
2019-03-18T12:58:34.245Z,1.95
2019-03-18T13:01:12.092Z,1.95
2019-03-18T13:03:31.137Z,2.42
2019-03-18T13:05:59.202Z,1.90
2019-03-18T13:08:27.321Z,2.22
2019-03-18T13:10:55.111Z,2.80
2019-03-18T13:13:23.162Z,3.12
2019-03-18T13:15:50.969Z,2.75
2019-03-18T13:18:19.016Z,2.30
2019-03-18T13:20:47.193Z,2.08
2019-03-18T13:23:15.404Z,3.15
2019-03-18T13:25:43.865Z,2.53
2019-03-18T13:28:11.937Z,2.62
2019-03-18T13:30:40.016Z,2.72
2019-03-18T13:33:08.124Z,3.03
2019-03-18T13:35:36.329Z,2.70
2019-03-18T13:38:04.430Z,2.72
2019-03-18T13:40:32.589Z,2.28
2019-03-18T13:43:00.741Z,2.08
2019-03-18T13:45:28.836Z,2.35
2019-03-18T13:47:56.431Z,2.50
2019-03-18T13:50:24.546Z,2.72
2019-03-18T13:52:52.605Z,2.33
2019-03-18T13:55:20.805Z,2.28
2019-03-18T13:57:48.689Z,2.45
2019-03-18T14:00:16.545Z,2.70
2019-03-18T14:02:45.641Z,2.20
2019-03-18T14:05:13.405Z,2.10
2019-03-18T14:07:41.491Z,2.15
2019-03-18T14:10:11.102Z,2.92
2019-03-18T14:12:39.170Z,2.70
2019-03-18T14:15:07.426Z,2.60
2019-03-18T14:17:35.525Z,3.10
2019-03-18T14:20:03.699Z,3.67
2019-03-18T14:22:31.452Z,3.08
2019-03-18T14:24:59.511Z,2.50
2019-03-18T14:27:27.273Z,2.00
2019-03-18T14:29:55.436Z,2.25
2019-03-18T14:32:23.529Z,2.42
2019-03-18T14:34:51.293Z,2.70
2019-03-18T14:37:19.321Z,3.17
2019-03-18T14:39:47.401Z,2.42
2019-03-18T14:42:15.483Z,2.70
2019-03-18T14:44:43.732Z,2.40
2019-03-18T14:47:12.136Z,2.30
2019-03-18T14:49:40.219Z,2.22
2019-03-18T14:52:07.985Z,1.70
2019-03-18T14:54:36.166Z,2.03
2019-03-18T14:57:04.225Z,1.27
2019-03-18T14:59:32.341Z,1.70
2019-03-18T15:02:00.662Z,2.03
2019-03-18T15:04:29.568Z,1.90
2019-03-18T15:06:57.637Z,1.87
2019-03-18T15:09:25.745Z,1.73
2019-03-18T15:11:53.625Z,1.70
2019-03-18T15:14:21.753Z,2.15
2019-03-18T15:16:49.606Z,1.98
2019-03-18T15:19:17.399Z,1.60
2019-03-18T15:21:57.644Z,2.33
2019-03-18T15:24:17.150Z,2.30
2019-03-18T15:26:41.617Z,2.45
2019-03-18T15:29:09.729Z,2.37
2019-03-18T15:31:38.138Z,1.90
2019-03-18T15:34:06.197Z,2.03
2019-03-18T15:36:34.297Z,1.75
2019-03-18T15:39:02.467Z,2.35
2019-03-18T15:41:30.534Z,1.85
2019-03-18T15:43:58.295Z,1.90
2019-03-18T15:46:26.424Z,2.50
2019-03-18T15:48:54.249Z,1.87
2019-03-18T15:51:22.438Z,2.15
2019-03-18T15:53:50.909Z,1.60
2019-03-18T15:56:18.942Z,2.53
2019-03-18T15:58:47.026Z,2.05
2019-03-18T16:01:15.263Z,1.98
2019-03-18T16:03:43.369Z,2.35
2019-03-18T16:06:11.972Z,2.60
2019-03-18T16:08:40.062Z,2.55
2019-03-18T16:11:08.217Z,2.10
2019-03-18T16:13:35.972Z,2.42
2019-03-18T16:16:04.139Z,2.03
2019-03-18T16:18:31.890Z,2.22
2019-03-18T16:20:59.855Z,2.28
2019-03-18T16:23:27.710Z,2.47
2019-03-18T16:25:55.618Z,1.90
2019-03-18T16:28:23.670Z,2.10
2019-03-18T16:30:51.766Z,2.25
2019-03-18T16:33:19.847Z,2.12
2019-03-18T16:35:48.397Z,2.15
2019-03-18T16:38:16.463Z,2.10
2019-03-18T16:40:44.345Z,1.70
2019-03-18T16:43:12.383Z,2.33
2019-03-18T16:45:40.501Z,2.10
2019-03-18T16:48:08.556Z,2.30
2019-03-18T16:50:36.599Z,2.35
2019-03-18T16:53:04.749Z,2.30
2019-03-18T16:55:32.874Z,1.85
2019-03-18T16:58:00.946Z,2.15
2019-03-18T17:00:29.017Z,1.80
2019-03-18T17:02:57.171Z,1.73
2019-03-18T17:05:25.284Z,2.20
2019-03-18T17:07:54.661Z,1.92
2019-03-18T17:10:21.918Z,1.70
2019-03-18T17:12:49.672Z,2.17
2019-03-18T17:15:18.280Z,1.95
2019-03-18T17:17:46.447Z,2.15
2019-03-18T17:20:14.201Z,2.50
2019-03-18T17:22:48.997Z,2.00
2019-03-18T17:25:11.648Z,2.35
2019-03-18T17:27:39.785Z,1.90
2019-03-18T17:30:10.368Z,1.95
2019-03-18T17:32:38.230Z,1.80
2019-03-18T17:35:06.360Z,2.03
2019-03-18T17:37:34.587Z,2.10
2019-03-18T17:40:02.656Z,1.65
2019-03-18T17:42:30.721Z,2.00
2019-03-18T17:44:58.807Z,2.10
2019-03-18T17:47:26.542Z,1.83
2019-03-18T17:49:54.626Z,1.98
2019-03-18T17:52:22.828Z,2.28
2019-03-18T17:54:50.866Z,2.12
2019-03-18T17:57:19.070Z,1.70
2019-03-18T17:59:47.258Z,2.05
2019-03-18T18:02:15.383Z,1.87
2019-03-18T18:04:43.584Z,1.67
2019-03-18T18:07:11.811Z,1.73
2019-03-18T18:09:40.626Z,2.47
2019-03-18T18:12:08.440Z,2.97
2019-03-18T18:14:36.600Z,1.70
2019-03-18T18:17:04.645Z,2.17
2019-03-18T18:19:32.079Z,1.80
2019-03-18T18:22:00.177Z,2.40
2019-03-18T18:24:28.245Z,2.33
2019-03-18T18:26:56.400Z,3.35
2019-03-18T18:29:24.507Z,2.42
2019-03-18T18:31:52.532Z,3.00
2019-03-18T18:34:20.277Z,2.37
2019-03-18T18:36:48.191Z,3.10
2019-03-18T18:39:16.294Z,4.37
2019-03-18T18:41:44.416Z,2.55
2019-03-18T18:44:12.486Z,2.37
2019-03-18T18:46:40.569Z,2.42
2019-03-18T18:49:08.649Z,1.83
2019-03-18T18:51:36.790Z,2.33
2019-03-18T18:54:04.609Z,2.08
2019-03-18T18:56:32.723Z,2.47
2019-03-18T18:59:00.859Z,2.17
2019-03-18T19:01:28.701Z,2.28
2019-03-18T19:03:56.783Z,2.30
2019-03-18T19:06:25.094Z,2.35
2019-03-18T19:08:53.203Z,2.70
2019-03-18T19:11:21.787Z,2.60
2019-03-18T19:13:50.044Z,2.47
2019-03-18T19:16:18.158Z,2.40
2019-03-18T19:18:46.286Z,2.92
2019-03-18T19:21:14.390Z,2.40
2019-03-18T19:23:42.253Z,2.53
2019-03-18T19:26:10.102Z,2.92
2019-03-18T19:28:38.672Z,3.10
2019-03-18T19:31:06.765Z,2.90
2019-03-18T19:33:34.811Z,2.20
2019-03-18T19:36:02.919Z,2.58
2019-03-18T19:38:30.094Z,2.85
2019-03-18T19:40:57.633Z,4.00
2019-03-18T19:43:25.740Z,3.12
2019-03-18T19:45:53.766Z,4.10
2019-03-18T19:48:21.935Z,3.28
2019-03-18T19:50:50.321Z,2.47
2019-03-18T19:53:19.016Z,3.83
2019-03-18T19:55:47.064Z,2.92
2019-03-18T19:58:15.159Z,3.22
2019-03-18T20:00:43.002Z,2.87
2019-03-18T20:03:11.065Z,2.53
2019-03-18T20:05:38.955Z,3.10
2019-03-18T20:08:07.113Z,2.97
2019-03-18T20:10:35.239Z,2.92
2019-03-18T20:13:04.933Z,3.50
2019-03-18T20:15:32.642Z,3.70
2019-03-18T20:18:00.789Z,3.60
2019-03-18T20:20:28.698Z,2.78
2019-03-18T20:22:56.866Z,2.92
2019-03-18T20:25:25.051Z,3.12
2019-03-18T20:27:53.231Z,4.12
2019-03-18T20:30:21.064Z,3.03
2019-03-18T20:32:48.969Z,3.08
2019-03-18T20:35:17.739Z,3.12
2019-03-18T20:37:45.315Z,3.20
2019-03-18T20:40:13.400Z,3.28
2019-03-18T20:42:41.211Z,3.28
2019-03-18T20:45:10.365Z,3.00
2019-03-18T20:47:38.986Z,3.47
2019-03-18T20:50:07.808Z,2.75
2019-03-18T20:52:35.871Z,2.70
2019-03-18T20:55:03.654Z,2.72
2019-03-18T20:57:31.810Z,3.12
2019-03-18T21:00:00.364Z,2.70
2019-03-18T21:02:28.485Z,2.40
2019-03-18T21:04:57.352Z,3.33
2019-03-18T21:07:25.444Z,3.00
2019-03-18T21:09:53.286Z,3.33
2019-03-18T21:12:22.504Z,3.58
2019-03-18T21:14:50.679Z,3.67
2019-03-18T21:17:18.737Z,2.58
2019-03-18T21:19:46.843Z,3.28
2019-03-18T21:22:14.690Z,3.53
2019-03-18T21:24:42.734Z,4.07
2019-03-18T21:27:10.843Z,4.12
2019-03-18T21:29:38.689Z,3.87
2019-03-18T21:32:06.457Z,3.87
2019-03-18T21:34:34.638Z,4.22
2019-03-18T21:37:02.809Z,4.57
2019-03-18T21:39:30.839Z,4.32
2019-03-18T21:41:58.677Z,4.00
2019-03-18T21:44:26.813Z,3.00
2019-03-18T21:46:54.582Z,3.33
2019-03-18T21:49:22.771Z,3.62
2019-03-18T21:51:50.807Z,4.05
2019-03-18T21:54:18.894Z,3.37
2019-03-18T21:56:47.051Z,3.37
2019-03-18T21:59:14.910Z,4.00
2019-03-18T22:01:43.029Z,3.97
2019-03-18T22:04:11.075Z,3.83
2019-03-18T22:06:39.135Z,3.78
2019-03-18T22:09:07.627Z,3.90
2019-03-18T22:11:35.702Z,3.90
2019-03-18T22:14:03.794Z,3.87
2019-03-18T22:16:33.253Z,4.05
2019-03-18T22:19:01.401Z,4.10
2019-03-18T22:21:29.256Z,3.72
2019-03-18T22:23:57.356Z,4.55
2019-03-18T22:26:25.258Z,3.30
2019-03-18T22:28:53.102Z,3.87
2019-03-18T22:31:21.175Z,3.47
2019-03-18T22:33:49.314Z,4.20
2019-03-18T22:36:17.899Z,4.25
2019-03-18T22:38:46.003Z,5.07
2019-03-18T22:41:14.097Z,4.15
2019-03-18T22:43:42.162Z,4.18
2019-03-18T22:46:10.222Z,4.20
2019-03-18T22:48:38.348Z,3.70
2019-03-18T22:51:06.571Z,4.15
2019-03-18T22:53:34.832Z,4.18
2019-03-18T22:56:02.953Z,3.90
2019-03-18T22:58:30.783Z,4.30
2019-03-18T23:01:23.628Z,3.90
2019-03-18T23:03:51.702Z,3.75
2019-03-18T23:06:19.794Z,4.65
2019-03-18T23:08:48.930Z,3.30
2019-03-18T23:11:15.797Z,4.10
2019-03-18T23:13:43.879Z,5.03
2019-03-18T23:16:11.960Z,3.85
2019-03-18T23:18:40.123Z,3.95
2019-03-18T23:21:08.294Z,4.28
2019-03-18T23:23:36.155Z,5.22
2019-03-18T23:26:04.234Z,4.40
2019-03-18T23:28:32.443Z,4.55
2019-03-18T23:31:00.071Z,3.83
2019-03-18T23:33:28.157Z,4.00
2019-03-18T23:35:56.241Z,4.75
2019-03-18T23:38:24.289Z,4.07
2019-03-18T23:40:51.753Z,3.70
2019-03-18T23:43:19.618Z,4.50
2019-03-18T23:45:47.699Z,4.72
2019-03-18T23:48:15.564Z,4.40
2019-03-18T23:50:43.596Z,4.53
2019-03-18T23:53:11.835Z,3.85
2019-03-18T23:55:39.953Z,4.30
2019-03-18T23:58:07.819Z,4.75
